KRKS/RKS METAR and TAF weather

Enter ICAO airport designator
Station Type Date Time Source
KRKS METAR 2019/04/23 03:54 UTC NOAA

KRKS 230354Z AUTO 07005KT 10SM CLR 04/01 A3024 RMK AO2 SLP235 T00390006


Station Type Date Time Source
KRKS Decoded METAR 2019/04/23 03:54 UTC NOAA

ROCK SPRINGS-SWEETWATER CO, WY, United States (KRKS) 41-36N 109-03W
Apr 22, 2019 - 11:54 PM EDT / 2019.04.23 0354 UTC
Wind: from the ENE (070 degrees) at 6 MPH (5 KT):0
Visibility: 10 mile(s):0
Sky conditions: clear
Temperature: 39.0 F (3.9 C)
Dew Point: 33.1 F (0.6 C)
Relative Humidity: 79%
Pressure (altimeter): 30.24 in. Hg (1024 hPa)
ob: KRKS 230354Z AUTO 07005KT 10SM CLR 04/01 A3024 RMK AO2 SLP235 T00390006
cycle: 4

Station Type Date Time Source
KRKS TAF 2019/04/22 22:36 UTC NOAA

TAF
AMD KRKS 222134Z 2222/2318 06009KT P6SM BKN025
FM230000 05008KT P6SM SCT025 BKN050
FM230200 04007KT P6SM SCT090
FM230800 VRB05KT P6SM VCFG FEW015
FM231500 29008KT P6SM SKC

Example: see airport list